sensor_id;sensor_type;location;lat;lon;timestamp;P1;durP1;ratioP1;P2;durP2;ratioP2
2225;SDS011;1119;48.288;8.726;2024-02-23T00:01:13;21.20;;;3.53;;
2225;SDS011;1119;48.288;8.726;2024-02-23T00:03:40;21.20;;;3.73;;
2225;SDS011;1119;48.288;8.726;2024-02-23T00:06:09;21.27;;;3.90;;
2225;SDS011;1119;48.288;8.726;2024-02-23T00:08:37;21.40;;;4.30;;
2225;SDS011;1119;48.288;8.726;2024-02-23T00:11:06;21.30;;;3.93;;
2225;SDS011;1119;48.288;8.726;2024-02-23T00:13:34;21.30;;;4.20;;
2225;SDS011;1119;48.288;8.726;2024-02-23T00:16:01;21.30;;;4.17;;
2225;SDS011;1119;48.288;8.726;2024-02-23T00:18:29;21.33;;;4.10;;
2225;SDS011;1119;48.288;8.726;2024-02-23T00:20:56;21.27;;;4.00;;
2225;SDS011;1119;48.288;8.726;2024-02-23T00:23:25;21.20;;;3.77;;
2225;SDS011;1119;48.288;8.726;2024-02-23T00:25:54;21.20;;;4.10;;
2225;SDS011;1119;48.288;8.726;2024-02-23T00:28:21;21.07;;;3.40;;
2225;SDS011;1119;48.288;8.726;2024-02-23T00:30:48;21.20;;;4.07;;
2225;SDS011;1119;48.288;8.726;2024-02-23T00:33:15;21.00;;;3.67;;
2225;SDS011;1119;48.288;8.726;2024-02-23T00:35:43;21.20;;;4.03;;
2225;SDS011;1119;48.288;8.726;2024-02-23T00:38:10;21.10;;;3.97;;
2225;SDS011;1119;48.288;8.726;2024-02-23T00:40:39;21.00;;;3.70;;
2225;SDS011;1119;48.288;8.726;2024-02-23T00:43:06;21.00;;;3.73;;
2225;SDS011;1119;48.288;8.726;2024-02-23T00:45:34;21.00;;;3.40;;
2225;SDS011;1119;48.288;8.726;2024-02-23T00:48:01;20.90;;;3.70;;
2225;SDS011;1119;48.288;8.726;2024-02-23T00:50:29;21.03;;;3.43;;
2225;SDS011;1119;48.288;8.726;2024-02-23T00:52:56;20.93;;;3.30;;
2225;SDS011;1119;48.288;8.726;2024-02-23T00:55:24;21.00;;;3.37;;
2225;SDS011;1119;48.288;8.726;2024-02-23T00:57:53;21.00;;;3.50;;
2225;SDS011;1119;48.288;8.726;2024-02-23T01:00:21;20.70;;;3.00;;
2225;SDS011;1119;48.288;8.726;2024-02-23T01:02:48;20.80;;;3.07;;
2225;SDS011;1119;48.288;8.726;2024-02-23T01:05:17;20.90;;;3.17;;
2225;SDS011;1119;48.288;8.726;2024-02-23T01:07:45;20.90;;;3.30;;
2225;SDS011;1119;48.288;8.726;2024-02-23T01:10:12;21.07;;;3.33;;
2225;SDS011;1119;48.288;8.726;2024-02-23T01:12:39;21.07;;;3.57;;
2225;SDS011;1119;48.288;8.726;2024-02-23T01:15:08;20.97;;;3.60;;
2225;SDS011;1119;48.288;8.726;2024-02-23T01:17:36;20.97;;;3.53;;
2225;SDS011;1119;48.288;8.726;2024-02-23T01:20:04;20.87;;;3.40;;
2225;SDS011;1119;48.288;8.726;2024-02-23T01:22:32;20.83;;;3.20;;
2225;SDS011;1119;48.288;8.726;2024-02-23T01:24:59;20.93;;;3.57;;
2225;SDS011;1119;48.288;8.726;2024-02-23T01:27:27;20.97;;;3.57;;
2225;SDS011;1119;48.288;8.726;2024-02-23T01:29:54;21.07;;;3.83;;
2225;SDS011;1119;48.288;8.726;2024-02-23T01:32:23;21.00;;;3.33;;
2225;SDS011;1119;48.288;8.726;2024-02-23T01:34:50;21.03;;;3.97;;
2225;SDS011;1119;48.288;8.726;2024-02-23T01:37:17;20.93;;;3.40;;
2225;SDS011;1119;48.288;8.726;2024-02-23T01:39:44;20.93;;;3.20;;
2225;SDS011;1119;48.288;8.726;2024-02-23T01:42:12;21.00;;;3.43;;
2225;SDS011;1119;48.288;8.726;2024-02-23T01:44:39;20.80;;;3.20;;
2225;SDS011;1119;48.288;8.726;2024-02-23T01:47:06;20.77;;;3.10;;
2225;SDS011;1119;48.288;8.726;2024-02-23T01:49:35;21.00;;;3.77;;
2225;SDS011;1119;48.288;8.726;2024-02-23T01:52:03;20.97;;;3.10;;
2225;SDS011;1119;48.288;8.726;2024-02-23T01:54:31;20.90;;;3.37;;
2225;SDS011;1119;48.288;8.726;2024-02-23T01:56:59;21.07;;;3.60;;
2225;SDS011;1119;48.288;8.726;2024-02-23T01:59:28;20.90;;;3.40;;
2225;SDS011;1119;48.288;8.726;2024-02-23T02:01:56;20.90;;;3.40;;
2225;SDS011;1119;48.288;8.726;2024-02-23T02:04:24;21.00;;;3.30;;
2225;SDS011;1119;48.288;8.726;2024-02-23T02:06:52;20.83;;;3.50;;
2225;SDS011;1119;48.288;8.726;2024-02-23T02:09:20;20.87;;;3.50;;
2225;SDS011;1119;48.288;8.726;2024-02-23T02:11:47;21.07;;;3.50;;
2225;SDS011;1119;48.288;8.726;2024-02-23T02:14:16;20.90;;;3.23;;
2225;SDS011;1119;48.288;8.726;2024-02-23T02:16:44;20.90;;;3.20;;
2225;SDS011;1119;48.288;8.726;2024-02-23T02:19:12;20.83;;;2.77;;
2225;SDS011;1119;48.288;8.726;2024-02-23T02:21:40;20.97;;;3.33;;
2225;SDS011;1119;48.288;8.726;2024-02-23T02:24:09;20.90;;;3.30;;
2225;SDS011;1119;48.288;8.726;2024-02-23T02:26:37;20.87;;;3.10;;
2225;SDS011;1119;48.288;8.726;2024-02-23T02:29:04;21.00;;;3.10;;
2225;SDS011;1119;48.288;8.726;2024-02-23T02:31:31;20.80;;;2.90;;
2225;SDS011;1119;48.288;8.726;2024-02-23T02:34:02;20.83;;;2.50;;
2225;SDS011;1119;48.288;8.726;2024-02-23T02:36:30;20.90;;;2.90;;
2225;SDS011;1119;48.288;8.726;2024-02-23T02:38:57;20.80;;;2.70;;
2225;SDS011;1119;48.288;8.726;2024-02-23T02:41:27;20.90;;;3.30;;
2225;SDS011;1119;48.288;8.726;2024-02-23T02:43:55;20.90;;;2.97;;
2225;SDS011;1119;48.288;8.726;2024-02-23T02:46:23;20.80;;;2.57;;
2225;SDS011;1119;48.288;8.726;2024-02-23T02:48:50;20.90;;;2.90;;
2225;SDS011;1119;48.288;8.726;2024-02-23T02:51:17;20.70;;;2.60;;
2225;SDS011;1119;48.288;8.726;2024-02-23T02:53:44;20.80;;;2.67;;
2225;SDS011;1119;48.288;8.726;2024-02-23T02:56:12;20.90;;;2.97;;
2225;SDS011;1119;48.288;8.726;2024-02-23T02:58:40;20.93;;;3.10;;
2225;SDS011;1119;48.288;8.726;2024-02-23T03:01:07;20.90;;;2.97;;
2225;SDS011;1119;48.288;8.726;2024-02-23T03:03:35;20.77;;;2.67;;
2225;SDS011;1119;48.288;8.726;2024-02-23T03:06:02;20.80;;;2.80;;
2225;SDS011;1119;48.288;8.726;2024-02-23T03:08:31;20.60;;;2.43;;
2225;SDS011;1119;48.288;8.726;2024-02-23T03:10:58;20.83;;;2.70;;
2225;SDS011;1119;48.288;8.726;2024-02-23T03:13:25;20.90;;;3.10;;
2225;SDS011;1119;48.288;8.726;2024-02-23T03:15:54;20.93;;;2.93;;
2225;SDS011;1119;48.288;8.726;2024-02-23T03:18:21;20.80;;;2.90;;
2225;SDS011;1119;48.288;8.726;2024-02-23T03:20:48;20.70;;;2.80;;
2225;SDS011;1119;48.288;8.726;2024-02-23T03:23:15;20.80;;;2.67;;
2225;SDS011;1119;48.288;8.726;2024-02-23T03:25:46;20.87;;;2.97;;
2225;SDS011;1119;48.288;8.726;2024-02-23T03:28:13;21.00;;;3.20;;
2225;SDS011;1119;48.288;8.726;2024-02-23T03:30:41;20.77;;;2.90;;
2225;SDS011;1119;48.288;8.726;2024-02-23T03:33:09;20.73;;;2.73;;
2225;SDS011;1119;48.288;8.726;2024-02-23T03:35:36;20.77;;;2.90;;
2225;SDS011;1119;48.288;8.726;2024-02-23T03:38:04;20.80;;;3.10;;
2225;SDS011;1119;48.288;8.726;2024-02-23T03:40:41;20.70;;;2.90;;
2225;SDS011;1119;48.288;8.726;2024-02-23T03:43:08;20.80;;;2.70;;
2225;SDS011;1119;48.288;8.726;2024-02-23T03:45:35;20.70;;;2.67;;
2225;SDS011;1119;48.288;8.726;2024-02-23T03:48:03;20.80;;;2.67;;
2225;SDS011;1119;48.288;8.726;2024-02-23T03:50:32;20.60;;;2.50;;
2225;SDS011;1119;48.288;8.726;2024-02-23T03:53:00;20.70;;;2.77;;
2225;SDS011;1119;48.288;8.726;2024-02-23T03:55:28;20.70;;;2.87;;
2225;SDS011;1119;48.288;8.726;2024-02-23T03:57:55;20.80;;;2.77;;
2225;SDS011;1119;48.288;8.726;2024-02-23T04:00:23;20.77;;;2.97;;
2225;SDS011;1119;48.288;8.726;2024-02-23T04:02:50;20.70;;;2.57;;
2225;SDS011;1119;48.288;8.726;2024-02-23T04:05:17;20.60;;;2.67;;
2225;SDS011;1119;48.288;8.726;2024-02-23T04:07:46;20.83;;;2.80;;
2225;SDS011;1119;48.288;8.726;2024-02-23T04:10:14;20.87;;;2.80;;
2225;SDS011;1119;48.288;8.726;2024-02-23T04:12:41;20.77;;;2.50;;
2225;SDS011;1119;48.288;8.726;2024-02-23T04:15:09;20.70;;;2.60;;
2225;SDS011;1119;48.288;8.726;2024-02-23T04:17:37;20.60;;;2.20;;
2225;SDS011;1119;48.288;8.726;2024-02-23T04:20:05;20.70;;;2.50;;
2225;SDS011;1119;48.288;8.726;2024-02-23T04:22:34;20.73;;;2.93;;
2225;SDS011;1119;48.288;8.726;2024-02-23T04:25:04;20.70;;;2.63;;
2225;SDS011;1119;48.288;8.726;2024-02-23T04:27:31;20.50;;;2.43;;
2225;SDS011;1119;48.288;8.726;2024-02-23T04:29:59;20.77;;;3.00;;
2225;SDS011;1119;48.288;8.726;2024-02-23T04:32:26;20.90;;;3.13;;
2225;SDS011;1119;48.288;8.726;2024-02-23T04:35:11;20.90;;;3.07;;
2225;SDS011;1119;48.288;8.726;2024-02-23T04:37:39;20.80;;;2.90;;
2225;SDS011;1119;48.288;8.726;2024-02-23T04:40:11;20.67;;;2.83;;
2225;SDS011;1119;48.288;8.726;2024-02-23T04:42:39;20.90;;;2.83;;
2225;SDS011;1119;48.288;8.726;2024-02-23T04:45:06;20.73;;;2.60;;
2225;SDS011;1119;48.288;8.726;2024-02-23T04:47:34;20.60;;;2.43;;
2225;SDS011;1119;48.288;8.726;2024-02-23T04:50:02;20.90;;;3.00;;
2225;SDS011;1119;48.288;8.726;2024-02-23T04:52:30;20.83;;;2.67;;
2225;SDS011;1119;48.288;8.726;2024-02-23T04:54:57;20.70;;;2.40;;
2225;SDS011;1119;48.288;8.726;2024-02-23T04:57:26;20.67;;;2.50;;
2225;SDS011;1119;48.288;8.726;2024-02-23T04:59:53;20.70;;;2.70;;
2225;SDS011;1119;48.288;8.726;2024-02-23T05:02:20;20.67;;;2.60;;
2225;SDS011;1119;48.288;8.726;2024-02-23T05:04:47;20.80;;;2.90;;
2225;SDS011;1119;48.288;8.726;2024-02-23T05:07:15;20.67;;;2.67;;
2225;SDS011;1119;48.288;8.726;2024-02-23T05:09:42;20.80;;;2.80;;
2225;SDS011;1119;48.288;8.726;2024-02-23T05:12:09;20.40;;;2.40;;
2225;SDS011;1119;48.288;8.726;2024-02-23T05:14:37;20.77;;;2.57;;
2225;SDS011;1119;48.288;8.726;2024-02-23T05:17:05;20.57;;;2.27;;
2225;SDS011;1119;48.288;8.726;2024-02-23T05:19:46;20.67;;;2.57;;
2225;SDS011;1119;48.288;8.726;2024-02-23T05:22:13;20.67;;;2.50;;
2225;SDS011;1119;48.288;8.726;2024-02-23T05:24:40;20.57;;;2.50;;
2225;SDS011;1119;48.288;8.726;2024-02-23T05:27:09;20.57;;;2.23;;
2225;SDS011;1119;48.288;8.726;2024-02-23T05:29:38;20.70;;;2.57;;
2225;SDS011;1119;48.288;8.726;2024-02-23T05:32:05;20.67;;;2.67;;
2225;SDS011;1119;48.288;8.726;2024-02-23T05:34:33;20.73;;;2.63;;
2225;SDS011;1119;48.288;8.726;2024-02-23T05:37:01;20.70;;;2.50;;
2225;SDS011;1119;48.288;8.726;2024-02-23T05:39:28;20.73;;;2.50;;
2225;SDS011;1119;48.288;8.726;2024-02-23T05:41:56;20.60;;;2.33;;
2225;SDS011;1119;48.288;8.726;2024-02-23T05:44:25;20.77;;;2.57;;
2225;SDS011;1119;48.288;8.726;2024-02-23T05:46:55;20.77;;;2.50;;
2225;SDS011;1119;48.288;8.726;2024-02-23T05:49:22;20.70;;;2.70;;
2225;SDS011;1119;48.288;8.726;2024-02-23T05:51:49;20.70;;;2.30;;
2225;SDS011;1119;48.288;8.726;2024-02-23T05:54:17;20.67;;;2.57;;
2225;SDS011;1119;48.288;8.726;2024-02-23T05:56:44;20.60;;;2.30;;
2225;SDS011;1119;48.288;8.726;2024-02-23T05:59:12;20.70;;;2.60;;
2225;SDS011;1119;48.288;8.726;2024-02-23T06:01:39;20.70;;;2.50;;
2225;SDS011;1119;48.288;8.726;2024-02-23T06:04:08;20.50;;;2.37;;
2225;SDS011;1119;48.288;8.726;2024-02-23T06:06:35;20.77;;;2.70;;
2225;SDS011;1119;48.288;8.726;2024-02-23T06:09:02;20.70;;;2.50;;
2225;SDS011;1119;48.288;8.726;2024-02-23T06:11:31;20.80;;;2.70;;
2225;SDS011;1119;48.288;8.726;2024-02-23T06:13:58;20.80;;;3.10;;
2225;SDS011;1119;48.288;8.726;2024-02-23T06:16:25;20.77;;;2.67;;
2225;SDS011;1119;48.288;8.726;2024-02-23T06:18:53;20.60;;;2.60;;
2225;SDS011;1119;48.288;8.726;2024-02-23T06:21:22;20.67;;;2.50;;
2225;SDS011;1119;48.288;8.726;2024-02-23T06:23:49;20.67;;;2.33;;
2225;SDS011;1119;48.288;8.726;2024-02-23T06:26:16;20.73;;;2.40;;
2225;SDS011;1119;48.288;8.726;2024-02-23T06:28:44;20.50;;;2.33;;
2225;SDS011;1119;48.288;8.726;2024-02-23T06:31:12;20.70;;;2.63;;
2225;SDS011;1119;48.288;8.726;2024-02-23T06:33:39;20.70;;;2.30;;
2225;SDS011;1119;48.288;8.726;2024-02-23T06:36:07;20.50;;;2.30;;
2225;SDS011;1119;48.288;8.726;2024-02-23T06:38:37;20.60;;;2.40;;
2225;SDS011;1119;48.288;8.726;2024-02-23T06:41:04;20.70;;;2.43;;
2225;SDS011;1119;48.288;8.726;2024-02-23T06:43:33;20.70;;;2.30;;
2225;SDS011;1119;48.288;8.726;2024-02-23T06:46:03;20.60;;;2.13;;
2225;SDS011;1119;48.288;8.726;2024-02-23T06:48:32;20.67;;;2.33;;
2225;SDS011;1119;48.288;8.726;2024-02-23T06:51:00;20.67;;;2.20;;
2225;SDS011;1119;48.288;8.726;2024-02-23T06:53:27;20.60;;;2.03;;
2225;SDS011;1119;48.288;8.726;2024-02-23T06:55:56;20.70;;;2.33;;
2225;SDS011;1119;48.288;8.726;2024-02-23T06:58:26;20.70;;;2.37;;
2225;SDS011;1119;48.288;8.726;2024-02-23T07:00:53;20.70;;;2.60;;
2225;SDS011;1119;48.288;8.726;2024-02-23T07:03:20;20.73;;;2.60;;
2225;SDS011;1119;48.288;8.726;2024-02-23T07:05:48;20.70;;;2.60;;
2225;SDS011;1119;48.288;8.726;2024-02-23T07:08:15;20.63;;;2.30;;
2225;SDS011;1119;48.288;8.726;2024-02-23T07:10:43;20.67;;;2.20;;
2225;SDS011;1119;48.288;8.726;2024-02-23T07:13:11;20.60;;;2.10;;
2225;SDS011;1119;48.288;8.726;2024-02-23T07:15:39;20.50;;;2.00;;
2225;SDS011;1119;48.288;8.726;2024-02-23T07:18:06;20.63;;;2.13;;
2225;SDS011;1119;48.288;8.726;2024-02-23T07:20:34;20.63;;;2.20;;
2225;SDS011;1119;48.288;8.726;2024-02-23T07:23:02;20.53;;;2.10;;
2225;SDS011;1119;48.288;8.726;2024-02-23T07:25:29;20.70;;;2.20;;
2225;SDS011;1119;48.288;8.726;2024-02-23T07:27:56;20.40;;;2.40;;
2225;SDS011;1119;48.288;8.726;2024-02-23T07:30:25;20.70;;;2.50;;
2225;SDS011;1119;48.288;8.726;2024-02-23T07:32:52;20.60;;;2.37;;
2225;SDS011;1119;48.288;8.726;2024-02-23T07:35:20;20.60;;;2.20;;
2225;SDS011;1119;48.288;8.726;2024-02-23T07:37:47;20.67;;;2.50;;
2225;SDS011;1119;48.288;8.726;2024-02-23T07:40:15;20.67;;;2.10;;
2225;SDS011;1119;48.288;8.726;2024-02-23T07:42:42;20.70;;;2.60;;
2225;SDS011;1119;48.288;8.726;2024-02-23T07:45:10;20.73;;;2.50;;
2225;SDS011;1119;48.288;8.726;2024-02-23T07:47:39;20.70;;;2.40;;
2225;SDS011;1119;48.288;8.726;2024-02-23T07:50:06;20.60;;;2.53;;
2225;SDS011;1119;48.288;8.726;2024-02-23T07:52:34;20.63;;;2.13;;
2225;SDS011;1119;48.288;8.726;2024-02-23T07:55:02;20.60;;;2.30;;
2225;SDS011;1119;48.288;8.726;2024-02-23T07:57:30;20.70;;;2.40;;
2225;SDS011;1119;48.288;8.726;2024-02-23T07:59:58;20.70;;;2.40;;
2225;SDS011;1119;48.288;8.726;2024-02-23T08:02:25;20.53;;;1.90;;
2225;SDS011;1119;48.288;8.726;2024-02-23T08:04:54;20.63;;;2.30;;
2225;SDS011;1119;48.288;8.726;2024-02-23T08:07:22;20.30;;;2.17;;
2225;SDS011;1119;48.288;8.726;2024-02-23T08:09:51;20.60;;;2.10;;
2225;SDS011;1119;48.288;8.726;2024-02-23T08:12:18;20.73;;;2.47;;
2225;SDS011;1119;48.288;8.726;2024-02-23T08:14:45;20.63;;;2.50;;
2225;SDS011;1119;48.288;8.726;2024-02-23T08:17:14;20.57;;;1.90;;
2225;SDS011;1119;48.288;8.726;2024-02-23T08:19:42;20.80;;;2.60;;
2225;SDS011;1119;48.288;8.726;2024-02-23T08:22:10;20.60;;;2.20;;
2225;SDS011;1119;48.288;8.726;2024-02-23T08:24:37;20.67;;;2.27;;
2225;SDS011;1119;48.288;8.726;2024-02-23T08:27:05;20.60;;;2.13;;
2225;SDS011;1119;48.288;8.726;2024-02-23T08:29:32;20.63;;;2.27;;
2225;SDS011;1119;48.288;8.726;2024-02-23T08:31:59;20.70;;;2.30;;
2225;SDS011;1119;48.288;8.726;2024-02-23T08:34:26;20.60;;;2.20;;
2225;SDS011;1119;48.288;8.726;2024-02-23T08:36:54;20.80;;;2.50;;
2225;SDS011;1119;48.288;8.726;2024-02-23T08:39:22;20.70;;;2.27;;
2225;SDS011;1119;48.288;8.726;2024-02-23T08:41:50;20.70;;;2.10;;
2225;SDS011;1119;48.288;8.726;2024-02-23T08:44:17;20.70;;;2.20;;
2225;SDS011;1119;48.288;8.726;2024-02-23T08:46:44;20.67;;;2.40;;
2225;SDS011;1119;48.288;8.726;2024-02-23T08:49:12;20.60;;;2.07;;
2225;SDS011;1119;48.288;8.726;2024-02-23T08:51:39;20.67;;;2.10;;
2225;SDS011;1119;48.288;8.726;2024-02-23T08:54:07;20.67;;;2.20;;
2225;SDS011;1119;48.288;8.726;2024-02-23T08:56:37;20.87;;;2.30;;
2225;SDS011;1119;48.288;8.726;2024-02-23T08:59:08;20.90;;;2.33;;
2225;SDS011;1119;48.288;8.726;2024-02-23T09:01:35;20.90;;;2.30;;
2225;SDS011;1119;48.288;8.726;2024-02-23T09:04:02;20.80;;;2.33;;
2225;SDS011;1119;48.288;8.726;2024-02-23T09:06:30;20.90;;;2.20;;
2225;SDS011;1119;48.288;8.726;2024-02-23T09:08:58;20.87;;;2.40;;
2225;SDS011;1119;48.288;8.726;2024-02-23T09:11:26;20.80;;;2.20;;
2225;SDS011;1119;48.288;8.726;2024-02-23T09:13:54;20.80;;;2.43;;
2225;SDS011;1119;48.288;8.726;2024-02-23T09:16:22;20.60;;;2.17;;
2225;SDS011;1119;48.288;8.726;2024-02-23T09:18:50;20.87;;;2.33;;
2225;SDS011;1119;48.288;8.726;2024-02-23T09:21:17;20.83;;;2.20;;
2225;SDS011;1119;48.288;8.726;2024-02-23T09:23:45;20.83;;;2.30;;
2225;SDS011;1119;48.288;8.726;2024-02-23T09:26:12;20.77;;;2.10;;
2225;SDS011;1119;48.288;8.726;2024-02-23T09:28:39;20.80;;;2.07;;
2225;SDS011;1119;48.288;8.726;2024-02-23T09:31:09;20.90;;;2.43;;
2225;SDS011;1119;48.288;8.726;2024-02-23T09:33:36;20.80;;;2.13;;
2225;SDS011;1119;48.288;8.726;2024-02-23T09:36:03;20.80;;;2.20;;
2225;SDS011;1119;48.288;8.726;2024-02-23T09:38:31;20.80;;;2.00;;
2225;SDS011;1119;48.288;8.726;2024-02-23T09:40:59;20.60;;;1.93;;
2225;SDS011;1119;48.288;8.726;2024-02-23T09:43:27;20.70;;;2.00;;
2225;SDS011;1119;48.288;8.726;2024-02-23T09:45:57;20.83;;;2.30;;
2225;SDS011;1119;48.288;8.726;2024-02-23T09:48:27;20.70;;;2.27;;
2225;SDS011;1119;48.288;8.726;2024-02-23T09:50:59;20.60;;;2.10;;
2225;SDS011;1119;48.288;8.726;2024-02-23T09:53:27;20.90;;;2.37;;
2225;SDS011;1119;48.288;8.726;2024-02-23T09:55:54;20.60;;;1.93;;
2225;SDS011;1119;48.288;8.726;2024-02-23T09:58:24;20.67;;;2.10;;
2225;SDS011;1119;48.288;8.726;2024-02-23T10:00:55;20.73;;;1.90;;
2225;SDS011;1119;48.288;8.726;2024-02-23T10:03:25;20.80;;;2.13;;
2225;SDS011;1119;48.288;8.726;2024-02-23T10:05:55;20.70;;;2.00;;
2225;SDS011;1119;48.288;8.726;2024-02-23T10:08:23;20.60;;;2.00;;
2225;SDS011;1119;48.288;8.726;2024-02-23T10:10:51;20.70;;;2.30;;
2225;SDS011;1119;48.288;8.726;2024-02-23T10:13:18;20.60;;;1.90;;
2225;SDS011;1119;48.288;8.726;2024-02-23T10:15:46;20.60;;;2.30;;
2225;SDS011;1119;48.288;8.726;2024-02-23T10:18:14;20.77;;;2.40;;
2225;SDS011;1119;48.288;8.726;2024-02-23T10:20:44;20.63;;;2.10;;
2225;SDS011;1119;48.288;8.726;2024-02-23T10:23:12;20.80;;;2.23;;
2225;SDS011;1119;48.288;8.726;2024-02-23T10:25:39;20.70;;;2.27;;
2225;SDS011;1119;48.288;8.726;2024-02-23T10:28:07;20.73;;;2.23;;
2225;SDS011;1119;48.288;8.726;2024-02-23T10:30:40;20.67;;;2.30;;
2225;SDS011;1119;48.288;8.726;2024-02-23T10:33:11;20.63;;;2.10;;
2225;SDS011;1119;48.288;8.726;2024-02-23T10:35:40;20.57;;;2.00;;
2225;SDS011;1119;48.288;8.726;2024-02-23T10:38:14;20.70;;;2.20;;
2225;SDS011;1119;48.288;8.726;2024-02-23T10:40:44;20.70;;;2.10;;
2225;SDS011;1119;48.288;8.726;2024-02-23T10:43:19;20.77;;;2.20;;
2225;SDS011;1119;48.288;8.726;2024-02-23T10:45:46;20.63;;;2.00;;
2225;SDS011;1119;48.288;8.726;2024-02-23T10:48:16;20.60;;;2.07;;
2225;SDS011;1119;48.288;8.726;2024-02-23T10:50:46;20.70;;;2.10;;
2225;SDS011;1119;48.288;8.726;2024-02-23T10:53:15;20.77;;;2.20;;
2225;SDS011;1119;48.288;8.726;2024-02-23T10:55:45;20.77;;;2.30;;
2225;SDS011;1119;48.288;8.726;2024-02-23T10:58:18;20.50;;;1.73;;
2225;SDS011;1119;48.288;8.726;2024-02-23T11:00:45;20.80;;;2.17;;
2225;SDS011;1119;48.288;8.726;2024-02-23T11:03:13;20.77;;;2.47;;
2225;SDS011;1119;48.288;8.726;2024-02-23T11:05:41;20.70;;;2.20;;
2225;SDS011;1119;48.288;8.726;2024-02-23T11:08:10;20.77;;;2.40;;
2225;SDS011;1119;48.288;8.726;2024-02-23T11:10:48;20.67;;;2.20;;
2225;SDS011;1119;48.288;8.726;2024-02-23T11:13:17;20.70;;;2.43;;
2225;SDS011;1119;48.288;8.726;2024-02-23T11:15:44;20.73;;;2.50;;
2225;SDS011;1119;48.288;8.726;2024-02-23T11:18:22;20.60;;;2.30;;
2225;SDS011;1119;48.288;8.726;2024-02-23T11:20:56;20.77;;;2.37;;
2225;SDS011;1119;48.288;8.726;2024-02-23T11:23:28;20.67;;;2.40;;
2225;SDS011;1119;48.288;8.726;2024-02-23T11:26:07;20.83;;;2.47;;
2225;SDS011;1119;48.288;8.726;2024-02-23T11:28:43;20.57;;;2.00;;
2225;SDS011;1119;48.288;8.726;2024-02-23T11:31:14;20.57;;;1.90;;
2225;SDS011;1119;48.288;8.726;2024-02-23T11:33:49;20.67;;;2.30;;
2225;SDS011;1119;48.288;8.726;2024-02-23T11:36:23;20.60;;;2.30;;
2225;SDS011;1119;48.288;8.726;2024-02-23T11:38:56;20.70;;;2.47;;
2225;SDS011;1119;48.288;8.726;2024-02-23T11:41:26;20.67;;;2.20;;
2225;SDS011;1119;48.288;8.726;2024-02-23T11:43:55;20.70;;;2.10;;
2225;SDS011;1119;48.288;8.726;2024-02-23T11:46:23;20.83;;;2.43;;
2225;SDS011;1119;48.288;8.726;2024-02-23T11:48:51;20.67;;;2.17;;
2225;SDS011;1119;48.288;8.726;2024-02-23T11:51:20;20.60;;;2.17;;
2225;SDS011;1119;48.288;8.726;2024-02-23T11:53:48;20.77;;;2.43;;
2225;SDS011;1119;48.288;8.726;2024-02-23T11:56:18;20.77;;;2.40;;
2225;SDS011;1119;48.288;8.726;2024-02-23T11:58:46;20.73;;;2.50;;
2225;SDS011;1119;48.288;8.726;2024-02-23T12:01:14;20.70;;;2.50;;
2225;SDS011;1119;48.288;8.726;2024-02-23T12:03:41;20.70;;;2.20;;
2225;SDS011;1119;48.288;8.726;2024-02-23T12:06:10;20.67;;;2.40;;
2225;SDS011;1119;48.288;8.726;2024-02-23T12:08:37;20.70;;;2.20;;
2225;SDS011;1119;48.288;8.726;2024-02-23T12:11:06;20.67;;;2.13;;
2225;SDS011;1119;48.288;8.726;2024-02-23T12:13:37;20.80;;;2.20;;
2225;SDS011;1119;48.288;8.726;2024-02-23T12:16:06;20.80;;;2.23;;
2225;SDS011;1119;48.288;8.726;2024-02-23T12:18:34;20.63;;;2.30;;
2225;SDS011;1119;48.288;8.726;2024-02-23T12:21:04;20.67;;;2.07;;
2225;SDS011;1119;48.288;8.726;2024-02-23T12:23:40;20.70;;;2.10;;
2225;SDS011;1119;48.288;8.726;2024-02-23T12:26:08;20.67;;;2.20;;
2225;SDS011;1119;48.288;8.726;2024-02-23T12:28:37;20.60;;;2.17;;
2225;SDS011;1119;48.288;8.726;2024-02-23T12:31:05;20.60;;;2.00;;
2225;SDS011;1119;48.288;8.726;2024-02-23T12:33:33;20.50;;;2.10;;
2225;SDS011;1119;48.288;8.726;2024-02-23T12:36:01;20.50;;;1.83;;
2225;SDS011;1119;48.288;8.726;2024-02-23T12:38:30;20.63;;;2.03;;
2225;SDS011;1119;48.288;8.726;2024-02-23T12:40:58;20.70;;;2.20;;
2225;SDS011;1119;48.288;8.726;2024-02-23T12:43:27;20.57;;;2.03;;
2225;SDS011;1119;48.288;8.726;2024-02-23T12:45:57;20.73;;;2.40;;
2225;SDS011;1119;48.288;8.726;2024-02-23T12:48:24;20.50;;;2.07;;
2225;SDS011;1119;48.288;8.726;2024-02-23T12:50:52;20.63;;;2.23;;
2225;SDS011;1119;48.288;8.726;2024-02-23T12:53:32;20.67;;;2.30;;
2225;SDS011;1119;48.288;8.726;2024-02-23T12:56:02;20.70;;;2.33;;
2225;SDS011;1119;48.288;8.726;2024-02-23T12:58:30;20.70;;;2.57;;
2225;SDS011;1119;48.288;8.726;2024-02-23T13:00:59;20.63;;;2.40;;
2225;SDS011;1119;48.288;8.726;2024-02-23T13:03:27;20.47;;;2.40;;
2225;SDS011;1119;48.288;8.726;2024-02-23T13:05:55;20.60;;;2.23;;
2225;SDS011;1119;48.288;8.726;2024-02-23T13:08:23;20.70;;;2.47;;
2225;SDS011;1119;48.288;8.726;2024-02-23T13:10:51;20.60;;;1.83;;
2225;SDS011;1119;48.288;8.726;2024-02-23T13:13:20;20.50;;;2.17;;
2225;SDS011;1119;48.288;8.726;2024-02-23T13:15:49;20.57;;;2.30;;
2225;SDS011;1119;48.288;8.726;2024-02-23T13:18:20;20.53;;;2.30;;
2225;SDS011;1119;48.288;8.726;2024-02-23T13:20:47;20.50;;;2.00;;
2225;SDS011;1119;48.288;8.726;2024-02-23T13:23:14;20.37;;;2.00;;
2225;SDS011;1119;48.288;8.726;2024-02-23T13:25:42;20.50;;;2.10;;
2225;SDS011;1119;48.288;8.726;2024-02-23T13:28:10;20.50;;;2.30;;
2225;SDS011;1119;48.288;8.726;2024-02-23T13:30:38;20.60;;;2.40;;
2225;SDS011;1119;48.288;8.726;2024-02-23T13:33:06;20.47;;;2.20;;
2225;SDS011;1119;48.288;8.726;2024-02-23T13:35:37;20.50;;;2.40;;
2225;SDS011;1119;48.288;8.726;2024-02-23T13:38:05;20.40;;;2.27;;
2225;SDS011;1119;48.288;8.726;2024-02-23T13:40:32;20.47;;;2.20;;
2225;SDS011;1119;48.288;8.726;2024-02-23T13:43:00;20.50;;;2.20;;
2225;SDS011;1119;48.288;8.726;2024-02-23T13:45:27;20.47;;;2.30;;
2225;SDS011;1119;48.288;8.726;2024-02-23T13:47:57;20.47;;;2.27;;
2225;SDS011;1119;48.288;8.726;2024-02-23T13:50:26;20.47;;;2.20;;
2225;SDS011;1119;48.288;8.726;2024-02-23T13:52:56;20.37;;;2.10;;
2225;SDS011;1119;48.288;8.726;2024-02-23T13:55:23;20.30;;;2.00;;
2225;SDS011;1119;48.288;8.726;2024-02-23T13:57:51;20.37;;;2.10;;
2225;SDS011;1119;48.288;8.726;2024-02-23T14:00:19;20.37;;;2.20;;
2225;SDS011;1119;48.288;8.726;2024-02-23T14:02:47;20.43;;;2.20;;
2225;SDS011;1119;48.288;8.726;2024-02-23T14:05:14;20.37;;;2.20;;
2225;SDS011;1119;48.288;8.726;2024-02-23T14:07:43;20.40;;;2.20;;
2225;SDS011;1119;48.288;8.726;2024-02-23T14:10:12;20.43;;;2.23;;
2225;SDS011;1119;48.288;8.726;2024-02-23T14:12:40;20.30;;;2.17;;
2225;SDS011;1119;48.288;8.726;2024-02-23T14:15:07;20.30;;;2.17;;
2225;SDS011;1119;48.288;8.726;2024-02-23T14:17:35;20.20;;;2.20;;
2225;SDS011;1119;48.288;8.726;2024-02-23T14:20:03;20.30;;;2.20;;
2225;SDS011;1119;48.288;8.726;2024-02-23T14:22:31;20.30;;;1.80;;
2225;SDS011;1119;48.288;8.726;2024-02-23T14:24:59;20.30;;;2.40;;
2225;SDS011;1119;48.288;8.726;2024-02-23T14:27:28;20.40;;;2.10;;
2225;SDS011;1119;48.288;8.726;2024-02-23T14:29:55;20.30;;;2.20;;
2225;SDS011;1119;48.288;8.726;2024-02-23T14:32:23;20.40;;;2.13;;
2225;SDS011;1119;48.288;8.726;2024-02-23T14:34:50;20.40;;;2.30;;
2225;SDS011;1119;48.288;8.726;2024-02-23T14:37:18;20.40;;;2.33;;
2225;SDS011;1119;48.288;8.726;2024-02-23T14:39:45;20.57;;;2.43;;
2225;SDS011;1119;48.288;8.726;2024-02-23T14:42:14;20.47;;;2.47;;
2225;SDS011;1119;48.288;8.726;2024-02-23T14:44:43;20.40;;;2.30;;
2225;SDS011;1119;48.288;8.726;2024-02-23T14:47:11;20.30;;;2.27;;
2225;SDS011;1119;48.288;8.726;2024-02-23T14:49:39;20.37;;;2.30;;
2225;SDS011;1119;48.288;8.726;2024-02-23T14:52:06;20.30;;;2.40;;
2225;SDS011;1119;48.288;8.726;2024-02-23T14:54:33;20.30;;;2.23;;
2225;SDS011;1119;48.288;8.726;2024-02-23T14:57:01;20.33;;;2.00;;
2225;SDS011;1119;48.288;8.726;2024-02-23T14:59:29;20.33;;;2.30;;
2225;SDS011;1119;48.288;8.726;2024-02-23T15:01:58;20.20;;;2.30;;
2225;SDS011;1119;48.288;8.726;2024-02-23T15:04:25;20.20;;;1.97;;
2225;SDS011;1119;48.288;8.726;2024-02-23T15:06:52;20.27;;;2.30;;